Time;durP1;ratioP1;P1;durP2;ratioP2;P2;SDS_P1;SDS_P2;PMS_P1;PMS_P2;Temp;Humidity;BMP_temperature;BMP_pressure;BME280_temperature;BME280_humidity;BME280_pressure;Samples;Min_cycle;Max_cycle;Signal;HPM_P1;HPM_P2
2022/09/20 00:02:17;;;;;;;4.68;1.38;;;12.50;99.90;;;;;;5043478;28;20048;-34
2022/09/20 00:04:43;;;;;;;7.55;1.65;;;12.50;99.90;;;;;;5044404;28;20025;-33
2022/09/20 00:07:08;;;;;;;4.70;1.60;;;12.50;99.90;;;;;;5043515;28;20458;-36
2022/09/20 00:09:34;;;;;;;6.85;1.35;;;12.50;99.90;;;;;;5040269;28;20022;-34
2022/09/20 00:12:00;;;;;;;5.55;1.20;;;12.40;99.90;;;;;;5034167;28;20035;-33
2022/09/20 00:14:26;;;;;;;6.82;1.48;;;12.40;99.90;;;;;;5044577;28;20025;-35
2022/09/20 00:16:51;;;;;;;4.47;1.40;;;12.40;99.90;;;;;;5044313;28;20051;-34
2022/09/20 00:19:20;;;;;;;5.95;1.60;;;12.40;99.90;;;;;;5044032;28;20078;-35
2022/09/20 00:21:46;;;;;;;5.38;1.40;;;12.40;99.90;;;;;;5044041;28;20048;-33
2022/09/20 00:24:12;;;;;;;5.47;1.45;;;12.40;99.90;;;;;;5044243;28;20441;-34
2022/09/20 00:26:38;;;;;;;2.95;1.20;;;12.40;99.90;;;;;;5044529;28;20477;-34
2022/09/20 00:29:04;;;;;;;4.78;1.75;;;12.50;99.90;;;;;;5044236;28;20025;-35
2022/09/20 00:31:30;;;;;;;4.15;1.38;;;12.50;99.90;;;;;;5044698;28;20473;-35
2022/09/20 00:36:41;;;;;;;7.43;1.70;;;12.50;99.90;;;;;;5044659;28;20055;-35
2022/09/20 00:39:10;;;;;;;5.25;1.40;;;12.50;99.90;;;;;;5044697;28;20078;-33
2022/09/20 00:41:36;;;;;;;4.70;1.25;;;12.40;99.90;;;;;;5044586;28;20033;-34
2022/09/20 00:44:02;;;;;;;4.68;1.55;;;12.40;99.90;;;;;;5043545;28;20039;-33
2022/09/20 00:46:34;;;;;;;6.90;1.77;;;12.40;99.90;;;;;;5043938;28;20025;-34
2022/09/20 00:49:10;;;;;;;4.70;1.50;;;12.40;99.90;;;;;;5044708;28;20029;-33
2022/09/20 00:51:39;;;;;;;7.03;1.52;;;12.40;99.90;;;;;;5023781;28;20107;-33
2022/09/20 00:54:08;;;;;;;5.60;1.42;;;12.40;99.90;;;;;;5039433;28;20923;-34
2022/09/20 00:56:37;;;;;;;5.47;1.90;;;12.40;99.90;;;;;;5045191;28;20029;-34
2022/09/20 00:59:31;;;;;;;5.93;1.45;;;12.40;99.90;;;;;;5043558;28;20045;-36
2022/09/20 01:02:07;;;;;;;6.90;1.65;;;12.40;99.90;;;;;;5024941;28;20099;-36
2022/09/20 01:04:35;;;;;;;3.05;1.20;;;12.40;99.90;;;;;;5040276;28;20618;-33
2022/09/20 01:07:03;;;;;;;6.57;1.90;;;12.50;99.90;;;;;;5024537;28;20030;-34
2022/09/20 01:09:29;;;;;;;5.35;1.70;;;12.50;99.90;;;;;;5038339;28;20116;-35
2022/09/20 01:11:56;;;;;;;6.97;1.55;;;12.50;99.90;;;;;;5044083;28;20024;-34
2022/09/20 01:14:25;;;;;;;5.15;1.60;;;12.40;99.90;;;;;;5043482;28;20376;-35
2022/09/20 01:16:53;;;;;;;4.45;1.40;;;12.40;99.90;;;;;;5044418;28;20056;-34
2022/09/20 01:19:38;;;;;;;3.40;1.20;;;12.40;99.90;;;;;;5042455;28;20033;-34
2022/09/20 01:22:21;;;;;;;3.38;1.38;;;12.50;99.90;;;;;;5044311;28;20147;-35
2022/09/20 01:25:06;;;;;;;5.25;1.50;;;12.40;99.90;;;;;;5044072;28;20083;-35
2022/09/20 01:27:41;;;;;;;3.42;1.65;;;12.50;99.90;;;;;;5043736;28;20032;-34
2022/09/20 01:30:11;;;;;;;4.15;1.15;;;12.50;99.90;;;;;;5043242;28;20391;-34
2022/09/20 01:33:13;;;;;;;2.92;1.17;;;12.50;99.90;;;;;;5046544;28;20465;-34
2022/09/20 01:35:42;;;;;;;4.43;1.10;;;12.50;99.90;;;;;;5047861;28;20112;-34
2022/09/20 01:38:21;;;;;;;3.95;1.10;;;12.50;99.90;;;;;;5047172;28;20391;-34
2022/09/20 01:41:11;;;;;;;3.03;1.00;;;12.60;99.90;;;;;;5046613;28;20519;-34
2022/09/20 01:43:43;;;;;;;3.40;0.95;;;12.50;99.90;;;;;;5047285;28;20029;-33
2022/09/20 01:46:32;;;;;;;3.22;1.30;;;12.50;99.90;;;;;;5047440;28;20032;-33
2022/09/20 01:49:25;;;;;;;3.20;0.95;;;12.50;99.90;;;;;;5048025;28;20315;-34
2022/09/20 01:52:02;;;;;;;4.25;1.30;;;12.50;99.90;;;;;;5044952;28;20029;-35
2022/09/20 01:54:46;;;;;;;2.78;1.00;;;12.50;99.90;;;;;;5045829;28;20406;-35
2022/09/20 01:57:58;;;;;;;3.17;0.93;;;12.60;99.90;;;;;;5045706;28;20040;-35
2022/09/20 02:00:58;;;;;;;4.93;0.85;;;12.60;99.90;;;;;;5046308;28;20048;-35
2022/09/20 02:03:48;;;;;;;4.03;1.10;;;12.50;99.90;;;;;;5035180;28;20037;-35
2022/09/20 02:06:28;;;;;;;5.55;1.20;;;12.50;99.90;;;;;;5046822;28;20051;-34
2022/09/20 02:09:24;;;;;;;3.88;1.20;;;12.50;99.90;;;;;;5047007;28;20527;-34
2022/09/20 02:12:17;;;;;;;5.32;1.30;;;12.50;99.90;;;;;;5046959;28;20032;-34
2022/09/20 02:15:17;;;;;;;7.80;1.48;;;12.40;99.90;;;;;;5046862;28;20052;-35
2022/09/20 02:18:16;;;;;;;4.40;1.10;;;12.40;99.90;;;;;;5044568;28;20059;-35
2022/09/20 02:21:20;;;;;;;3.92;0.85;;;12.40;99.90;;;;;;5046883;28;20028;-35
2022/09/20 02:24:05;;;;;;;3.08;1.17;;;12.40;99.90;;;;;;5039614;28;20397;-34
2022/09/20 02:26:33;;;;;;;3.25;1.10;;;12.40;99.90;;;;;;5046912;28;20042;-35
2022/09/20 02:29:17;;;;;;;3.53;1.20;;;12.30;99.90;;;;;;5046235;28;20039;-34
2022/09/20 02:32:11;;;;;;;4.40;1.40;;;12.40;99.90;;;;;;5046516;28;20028;-34
2022/09/20 02:34:55;;;;;;;6.25;1.23;;;12.40;99.90;;;;;;5046888;28;20021;-34
2022/09/20 02:37:54;;;;;;;4.28;1.48;;;12.40;99.90;;;;;;5045488;28;20059;-35
2022/09/20 02:40:33;;;;;;;3.75;0.95;;;12.30;99.90;;;;;;5026517;28;20139;-34
2022/09/20 02:43:28;;;;;;;3.38;1.00;;;12.40;99.90;;;;;;5042386;28;20045;-35
2022/09/20 02:46:00;;;;;;;3.15;1.05;;;12.30;99.90;;;;;;5046399;28;20036;-34
2022/09/20 02:48:53;;;;;;;5.75;1.63;;;12.30;99.90;;;;;;5045648;28;20029;-35
2022/09/20 02:51:56;;;;;;;3.78;1.10;;;12.30;99.90;;;;;;5045083;28;20063;-33
2022/09/20 02:54:35;;;;;;;4.80;1.00;;;12.30;99.90;;;;;;5035571;28;20052;-34
2022/09/20 02:57:43;;;;;;;6.43;1.23;;;12.20;99.90;;;;;;5044968;28;20102;-34
2022/09/20 03:00:15;;;;;;;6.20;1.42;;;12.30;99.90;;;;;;5039120;28;20633;-35
2022/09/20 03:03:01;;;;;;;6.68;1.30;;;12.30;99.90;;;;;;5045845;28;20066;-35
2022/09/20 03:05:31;;;;;;;3.28;0.98;;;12.30;99.90;;;;;;5045084;28;20388;-35
2022/09/20 03:08:42;;;;;;;5.00;1.13;;;12.30;99.90;;;;;;5045321;28;20021;-36
2022/09/20 03:11:35;;;;;;;5.30;1.10;;;12.30;99.90;;;;;;5044314;28;20493;-35
2022/09/20 03:14:23;;;;;;;3.05;1.10;;;12.30;99.90;;;;;;5045656;28;20445;-35
2022/09/20 03:17:01;;;;;;;3.33;1.13;;;12.30;99.90;;;;;;5045688;28;20025;-35
2022/09/20 03:19:48;;;;;;;2.63;1.10;;;12.30;99.90;;;;;;5043806;28;20040;-35
2022/09/20 03:22:31;;;;;;;2.90;1.08;;;12.30;99.90;;;;;;5044988;28;20628;-35
2022/09/20 03:25:29;;;;;;;4.55;1.13;;;12.20;99.90;;;;;;5042163;28;20040;-35
2022/09/20 03:28:18;;;;;;;15.30;3.15;;;12.20;99.90;;;;;;5045848;28;20127;-34
2022/09/20 03:31:06;;;;;;;4.88;1.40;;;12.20;99.90;;;;;;5036418;28;20040;-36
2022/09/20 03:34:04;;;;;;;2.40;0.98;;;12.20;99.90;;;;;;5043902;28;20048;-35
2022/09/20 03:36:57;;;;;;;2.25;0.82;;;12.10;99.90;;;;;;5040205;28;20515;-35
2022/09/20 03:39:48;;;;;;;4.32;0.98;;;12.10;99.90;;;;;;5044085;28;20040;-34
2022/09/20 03:42:18;;;;;;;5.72;1.88;;;12.10;99.90;;;;;;5024959;28;20433;-35
2022/09/20 03:45:15;;;;;;;4.78;1.48;;;12.10;99.90;;;;;;5040340;28;20016;-34
2022/09/20 03:48:08;;;;;;;3.40;1.42;;;12.10;99.90;;;;;;5025400;28;20747;-34
2022/09/20 03:50:42;;;;;;;;;;;12.10;99.90;;;;;;5045163;28;20036;-34
2022/09/20 03:53:50;;;;;;;2.25;1.15;;;12.10;99.90;;;;;;5044410;28;19909;-34
2022/09/20 03:56:40;;;;;;;3.00;1.40;;;12.10;99.90;;;;;;5043825;28;20029;-35
2022/09/20 03:59:32;;;;;;;3.10;1.40;;;12.00;99.90;;;;;;5045398;28;20377;-34
2022/09/20 04:02:28;;;;;;;3.80;1.38;;;12.10;99.90;;;;;;5044501;28;20045;-34
2022/09/20 04:05:24;;;;;;;4.35;1.40;;;12.00;99.90;;;;;;5044704;28;20040;-34
2022/09/20 04:07:53;;;;;;;2.55;1.20;;;12.00;99.90;;;;;;5032553;28;20151;-35
2022/09/20 04:10:32;;;;;;;2.85;1.30;;;12.10;99.90;;;;;;5044028;28;20025;-33
2022/09/20 04:13:24;;;;;;;4.22;1.33;;;12.00;99.90;;;;;;5045268;28;20055;-34
2022/09/20 04:16:05;;;;;;;4.03;1.55;;;12.00;99.90;;;;;;5043735;28;20047;-34
2022/09/20 04:18:37;;;;;;;4.10;1.55;;;12.00;99.90;;;;;;5024570;28;20025;-34
2022/09/20 04:21:25;;;;;;;3.67;1.38;;;11.90;99.90;;;;;;5039623;28;20477;-33
2022/09/20 04:24:35;;;;;;;3.13;1.33;;;11.90;99.90;;;;;;5025121;28;20405;-34
2022/09/20 04:27:16;;;;;;;2.50;1.08;;;11.90;99.90;;;;;;5040287;28;20203;-35
2022/09/20 04:29:46;;;;;;;3.53;1.33;;;11.90;99.90;;;;;;5043839;28;20041;-34
2022/09/20 04:32:33;;;;;;;2.60;1.42;;;11.80;99.90;;;;;;5043835;28;20017;-34
2022/09/20 04:38:05;;;;;;;4.05;1.30;;;11.80;99.90;;;;;;5035732;28;20125;-34
2022/09/20 04:40:42;;;;;;;;;;;11.80;99.90;;;;;;5044767;28;20124;-33
2022/09/20 04:43:52;;;;;;;2.38;1.40;;;11.80;99.90;;;;;;5043620;28;19924;-34
2022/09/20 04:47:00;;;;;;;3.58;1.45;;;11.70;99.90;;;;;;5020162;28;20147;-34
2022/09/20 04:49:43;;;;;;;4.47;1.70;;;11.80;99.90;;;;;;5023238;28;20056;-35
2022/09/20 04:52:33;;;;;;;3.45;1.40;;;11.80;99.90;;;;;;5040041;28;20443;-33
2022/09/20 04:55:11;;;;;;;4.97;1.40;;;11.80;99.90;;;;;;5024836;28;20034;-34
2022/09/20 04:58:15;;;;;;;4.95;1.58;;;11.80;99.90;;;;;;5042271;28;20112;-34
2022/09/20 05:01:18;;;;;;;3.17;1.73;;;11.80;99.90;;;;;;5044137;28;20051;-35
2022/09/20 05:04:13;;;;;;;3.58;1.35;;;11.80;99.90;;;;;;5033425;28;20532;-35
2022/09/20 05:07:17;;;;;;;2.40;1.33;;;11.90;99.90;;;;;;5046080;28;20087;-33
2022/09/20 05:09:45;;;;;;;;;;;11.90;99.90;;;;;;5049091;28;20029;-34
2022/09/20 05:12:37;;;;;;;2.28;1.30;;;11.90;99.90;;;;;;5047511;28;19955;-34
2022/09/20 05:15:25;;;;;;;5.25;1.92;;;11.90;99.90;;;;;;5048137;28;20464;-35
2022/09/20 05:18:23;;;;;;;5.50;1.40;;;11.90;99.90;;;;;;5047197;28;20029;-36
2022/09/20 05:21:07;;;;;;;3.53;1.50;;;11.90;99.90;;;;;;5029021;28;20537;-34
2022/09/20 05:24:05;;;;;;;3.05;1.23;;;11.90;99.90;;;;;;5047371;28;20071;-34
2022/09/20 05:27:07;;;;;;;3.97;1.20;;;11.90;99.90;;;;;;5047117;28;20396;-34
2022/09/20 05:30:01;;;;;;;4.45;1.50;;;11.90;99.90;;;;;;5037496;28;20036;-35
2022/09/20 05:32:38;;;;;;;3.70;1.42;;;11.80;99.90;;;;;;5046559;28;20583;-34
2022/09/20 05:35:13;;;;;;;4.53;1.80;;;11.90;99.90;;;;;;5047381;28;20484;-35
2022/09/20 05:37:41;;;;;;;3.70;1.67;;;11.90;99.90;;;;;;5047387;28;20380;-34
2022/09/20 05:40:38;;;;;;;3.95;1.42;;;11.90;99.90;;;;;;5046957;28;20029;-35
2022/09/20 05:43:29;;;;;;;4.65;1.67;;;11.90;99.90;;;;;;5047520;28;20563;-35
2022/09/20 05:46:16;;;;;;;3.03;1.40;;;11.90;99.90;;;;;;5047464;28;20040;-35
2022/09/20 05:49:09;;;;;;;5.55;1.75;;;11.90;99.90;;;;;;5048251;28;20103;-33
2022/09/20 05:52:13;;;;;;;2.90;1.70;;;11.90;99.90;;;;;;5028126;28;20021;-34
2022/09/20 05:55:01;;;;;;;4.60;1.45;;;11.80;99.90;;;;;;5047125;28;20017;-34
2022/09/20 05:57:39;;;;;;;3.65;1.67;;;11.70;99.90;;;;;;5044743;28;20378;-35
2022/09/20 06:00:18;;;;;;;3.78;1.63;;;11.80;99.90;;;;;;5042030;28;20052;-36
2022/09/20 06:03:05;;;;;;;4.25;1.35;;;11.80;99.90;;;;;;5046595;28;20077;-34
2022/09/20 06:05:46;;;;;;;3.67;1.60;;;11.80;99.90;;;;;;5045224;28;20470;-35
2022/09/20 06:08:30;;;;;;;5.10;1.67;;;11.80;99.90;;;;;;5045182;28;20534;-34
2022/09/20 06:11:04;;;;;;;4.90;1.80;;;11.80;99.90;;;;;;5036563;28;20091;-34
2022/09/20 06:13:39;;;;;;;2.72;1.30;;;11.80;99.90;;;;;;5045047;28;20116;-34
2022/09/20 06:16:06;;;;;;;3.00;1.40;;;11.80;99.90;;;;;;5041975;28;20013;-34
2022/09/20 06:18:39;;;;;;;4.05;1.77;;;11.80;99.90;;;;;;5044668;28;20032;-35
2022/09/20 06:21:28;;;;;;;3.35;1.50;;;11.70;99.90;;;;;;5045846;28;20025;-34
2022/09/20 06:23:59;;;;;;;2.70;1.50;;;11.80;99.90;;;;;;5045904;28;20310;-34
2022/09/20 06:26:29;;;;;;;3.20;1.40;;;11.80;99.90;;;;;;5035222;28;20017;-36
2022/09/20 06:29:02;;;;;;;2.22;1.20;;;11.90;99.90;;;;;;5045367;28;20096;-35
2022/09/20 06:31:27;;;;;;;1.65;1.10;;;12.00;99.90;;;;;;5045239;28;20032;-35
2022/09/20 06:34:04;;;;;;;5.70;1.55;;;12.10;99.90;;;;;;5045502;28;20025;-35
2022/09/20 06:42:30;;;;;;;;;;;12.30;99.90;;;;;;5039320;28;20052;-35
2022/09/20 06:44:56;;;;;;;3.15;1.30;;;12.40;99.90;;;;;;5046416;28;19909;-33
2022/09/20 06:47:22;;;;;;;3.88;1.33;;;12.50;99.90;;;;;;5045522;28;20197;-33
2022/09/20 06:49:49;;;;;;;2.63;1.15;;;12.50;99.90;;;;;;5045089;28;20095;-34
2022/09/20 06:52:17;;;;;;;2.42;1.10;;;12.60;99.90;;;;;;5045629;28;20016;-35
2022/09/20 06:54:44;;;;;;;2.83;1.50;;;12.60;99.90;;;;;;5046313;28;20032;-35
2022/09/20 06:57:16;;;;;;;2.88;1.20;;;12.70;99.90;;;;;;5044986;28;20029;-35
2022/09/20 06:59:42;;;;;;;2.35;0.90;;;12.70;99.90;;;;;;5045449;28;20049;-34
2022/09/20 07:02:08;;;;;;;2.53;1.33;;;12.80;99.90;;;;;;5045540;28;20032;-34
2022/09/20 07:04:33;;;;;;;2.42;1.20;;;12.80;99.90;;;;;;5045174;28;20028;-35
2022/09/20 07:07:04;;;;;;;3.42;1.40;;;12.90;99.90;;;;;;5045595;28;20021;-34
2022/09/20 07:09:30;;;;;;;4.97;1.60;;;12.90;99.90;;;;;;5045194;28;20127;-35
2022/09/20 07:11:57;;;;;;;4.72;1.77;;;12.90;99.90;;;;;;5045038;28;20448;-35
2022/09/20 07:14:24;;;;;;;3.45;1.63;;;12.80;99.90;;;;;;5044504;28;20025;-35
2022/09/20 07:16:49;;;;;;;6.50;1.90;;;12.70;99.90;;;;;;5044817;28;20029;-35
2022/09/20 07:19:15;;;;;;;4.38;1.60;;;12.70;99.90;;;;;;5044499;28;20410;-35
2022/09/20 07:21:40;;;;;;;4.82;1.27;;;12.70;99.90;;;;;;5044816;28;20025;-36
2022/09/20 07:24:06;;;;;;;2.17;1.10;;;12.70;99.90;;;;;;5044632;28;20063;-35
2022/09/20 07:26:32;;;;;;;5.15;1.63;;;12.70;99.90;;;;;;5044934;28;20724;-35
2022/09/20 07:28:58;;;;;;;4.82;1.25;;;12.80;99.90;;;;;;5045007;28;20025;-35
2022/09/20 07:31:26;;;;;;;3.15;1.40;;;12.80;99.90;;;;;;5043733;28;20032;-35
2022/09/20 07:34:00;;;;;;;4.07;1.42;;;12.80;99.90;;;;;;5044988;28;20408;-35
2022/09/20 07:36:26;;;;;;;2.97;1.35;;;12.80;99.90;;;;;;5044498;28;20021;-35
2022/09/20 07:38:52;;;;;;;2.90;1.00;;;12.90;99.90;;;;;;5044385;28;20039;-34
2022/09/20 07:41:25;;;;;;;2.65;1.13;;;12.90;99.90;;;;;;5044942;28;20491;-35
2022/09/20 07:43:51;;;;;;;2.85;1.45;;;13.00;99.90;;;;;;5045031;28;20029;-34
2022/09/20 07:46:17;;;;;;;3.03;1.20;;;13.00;99.90;;;;;;5044240;28;20497;-35
2022/09/20 07:48:48;;;;;;;4.35;1.50;;;12.90;99.90;;;;;;5045105;28;20021;-35
2022/09/20 07:51:14;;;;;;;2.50;1.45;;;12.90;99.90;;;;;;5044559;28;20113;-35
2022/09/20 07:53:40;;;;;;;1.15;1.05;;;12.90;99.90;;;;;;5044225;28;20073;-34
2022/09/20 07:56:09;;;;;;;2.75;1.40;;;12.80;99.90;;;;;;5044876;28;20029;-35
2022/09/20 07:58:35;;;;;;;2.00;1.13;;;12.80;99.90;;;;;;5044176;28;20390;-35
2022/09/20 08:01:05;;;;;;;2.97;1.58;;;12.80;99.90;;;;;;5044151;28;20067;-34
2022/09/20 08:03:33;;;;;;;2.38;1.40;;;12.80;99.90;;;;;;5044091;28;20033;-35
2022/09/20 08:06:05;;;;;;;5.20;1.92;;;12.70;99.90;;;;;;5024404;28;20048;-35
2022/09/20 08:08:32;;;;;;;4.15;1.50;;;12.70;99.90;;;;;;5039241;28;20025;-36
2022/09/20 08:11:05;;;;;;;2.38;1.70;;;12.70;99.90;;;;;;5044463;28;20021;-35
2022/09/20 08:13:37;;;;;;;5.03;1.40;;;12.70;99.90;;;;;;5043000;28;20111;-37
2022/09/20 08:16:09;;;;;;;4.28;1.45;;;12.70;99.90;;;;;;5044738;28;20427;-36
2022/09/20 08:18:36;;;;;;;3.40;1.15;;;12.70;99.90;;;;;;5044374;28;20027;-35
2022/09/20 08:21:05;;;;;;;5.07;1.77;;;12.80;99.90;;;;;;5043865;28;20035;-36
2022/09/20 08:23:41;;;;;;;2.67;1.48;;;12.80;99.90;;;;;;5043650;28;20295;-35
2022/09/20 08:26:13;;;;;;;4.72;1.45;;;12.90;99.90;;;;;;5044142;28;20036;-36
2022/09/20 08:28:40;;;;;;;3.38;1.40;;;13.00;99.90;;;;;;5043628;28;20031;-35
2022/09/20 08:31:08;;;;;;;3.00;1.30;;;13.10;99.90;;;;;;5044728;28;20021;-35
2022/09/20 08:33:38;;;;;;;3.35;1.13;;;13.20;99.90;;;;;;5043958;28;20032;-36
2022/09/20 08:36:04;;;;;;;2.50;1.20;;;13.40;99.90;;;;;;5043475;28;20062;-35
2022/09/20 08:38:32;;;;;;;2.78;1.02;;;13.60;99.90;;;;;;5041874;28;20048;-35
2022/09/20 08:41:24;;;;;;;3.50;1.30;;;13.80;99.90;;;;;;5045377;28;20411;-36
2022/09/20 08:43:55;;;;;;;4.13;1.00;;;14.00;99.90;;;;;;5048724;28;20041;-35
2022/09/20 08:46:27;;;;;;;3.05;1.30;;;14.10;99.90;;;;;;5048625;28;20494;-36
2022/09/20 08:48:56;;;;;;;2.25;0.70;;;14.20;99.90;;;;;;5047889;28;20141;-36
2022/09/20 08:51:28;;;;;;;1.42;0.70;;;14.30;99.90;;;;;;5047641;28;20523;-36
2022/09/20 08:53:55;;;;;;;1.85;0.85;;;14.40;99.90;;;;;;5048502;28;20036;-35
2022/09/20 08:56:21;;;;;;;2.85;0.68;;;14.50;99.90;;;;;;5047659;28;20441;-35
2022/09/20 08:58:47;;;;;;;1.63;0.70;;;14.60;99.90;;;;;;5047905;28;20053;-36
2022/09/20 09:01:20;;;;;;;2.90;1.05;;;14.70;99.90;;;;;;5047643;28;20048;-36
2022/09/20 09:03:46;;;;;;;1.02;0.60;;;14.70;99.90;;;;;;5047872;28;20131;-36
2022/09/20 09:06:13;;;;;;;4.05;0.60;;;14.80;99.90;;;;;;5047940;28;20027;-37
2022/09/20 09:08:41;;;;;;;3.70;0.85;;;14.80;99.90;;;;;;5048914;28;20021;-35
2022/09/20 09:11:13;;;;;;;2.92;0.82;;;14.80;99.90;;;;;;5047373;28;20551;-35
2022/09/20 09:14:03;;;;;;;3.83;0.73;;;14.80;99.90;;;;;;5048109;28;20040;-35
2022/09/20 09:16:32;;;;;;;2.83;1.02;;;14.70;99.90;;;;;;5046528;28;20112;-35
2022/09/20 09:19:17;;;;;;;1.75;0.90;;;14.70;99.90;;;;;;5048676;28;20228;-35
2022/09/20 09:21:46;;;;;;;5.60;1.20;;;14.60;99.90;;;;;;5047316;28;20051;-35
2022/09/20 09:24:17;;;;;;;3.13;1.00;;;14.60;99.90;;;;;;5046299;28;20036;-35
2022/09/20 09:26:42;;;;;;;1.15;0.70;;;14.60;99.90;;;;;;5047224;28;20477;-35
2022/09/20 09:29:14;;;;;;;4.75;1.00;;;14.60;99.90;;;;;;5046939;28;20029;-35
2022/09/20 09:31:40;;;;;;;3.80;0.80;;;14.60;99.90;;;;;;5046090;28;20028;-35
2022/09/20 09:34:21;;;;;;;2.63;0.80;;;14.60;99.90;;;;;;5047461;28;20037;-36
2022/09/20 09:36:47;;;;;;;1.90;0.70;;;14.70;99.90;;;;;;5047647;28;20469;-34
2022/09/20 09:39:24;;;;;;;1.90;0.60;;;14.80;99.90;;;;;;5045964;28;20548;-34
2022/09/20 09:41:50;;;;;;;2.78;0.73;;;14.80;99.90;;;;;;5047717;28;20033;-36
2022/09/20 09:44:23;;;;;;;3.15;0.90;;;14.80;99.90;;;;;;5047602;28;20558;-37
2022/09/20 09:46:49;;;;;;;3.28;0.95;;;14.90;99.90;;;;;;5046189;28;20479;-36
2022/09/20 09:49:32;;;;;;;2.35;0.85;;;14.90;99.90;;;;;;5046581;28;20021;-35
2022/09/20 09:52:01;;;;;;;1.85;0.60;;;14.90;99.90;;;;;;5046488;28;20029;-36
2022/09/20 09:54:50;;;;;;;1.85;0.50;;;15.00;99.90;;;;;;5046665;28;20040;-35
2022/09/20 09:57:33;;;;;;;4.78;0.80;;;15.00;99.90;;;;;;5046084;28;20544;-34
2022/09/20 10:00:09;;;;;;;2.15;0.50;;;14.90;99.90;;;;;;5026608;28;20565;-35
2022/09/20 10:03:05;;;;;;;1.85;0.82;;;14.80;99.90;;;;;;5043710;28;20079;-36
2022/09/20 10:05:51;;;;;;;3.50;1.00;;;14.70;99.90;;;;;;5046937;28;20146;-36
2022/09/20 10:08:42;;;;;;;1.15;0.45;;;14.60;99.90;;;;;;5046667;28;20024;-35
2022/09/20 10:11:25;;;;;;;2.05;0.68;;;14.70;99.90;;;;;;5046881;28;20033;-35
2022/09/20 10:14:19;;;;;;;2.22;0.50;;;14.70;99.90;;;;;;5046786;28;20078;-37
2022/09/20 10:17:09;;;;;;;2.50;0.60;;;14.80;99.90;;;;;;5046829;28;20036;-36
2022/09/20 10:20:00;;;;;;;2.72;0.65;;;15.00;99.90;;;;;;5046407;28;20025;-35
2022/09/20 10:23:16;;;;;;;2.15;0.38;;;15.20;99.90;;;;;;5046188;28;20037;-35
2022/09/20 10:25:53;;;;;;;3.72;0.60;;;15.30;99.90;;;;;;4984604;28;20034;-36
2022/09/20 10:28:31;;;;;;;5.35;3.20;;;15.60;99.90;;;;;;4999003;28;20113;-36
2022/09/20 10:31:13;;;;;;;3.08;1.40;;;15.70;99.90;;;;;;5010969;28;20034;-36
2022/09/20 10:33:49;;;;;;;2.60;1.10;;;15.80;99.90;;;;;;5044139;28;20029;-36
2022/09/20 10:36:23;;;;;;;1.55;0.80;;;16.00;99.90;;;;;;5045902;28;20024;-35
2022/09/20 10:39:12;;;;;;;1.80;0.70;;;16.00;99.90;;;;;;5045830;28;20043;-35
2022/09/20 10:44:46;;;;;;;2.45;0.40;;;16.00;99.90;;;;;;5044634;28;20059;-36
2022/09/20 10:47:19;;;;;;;2.38;0.60;;;16.10;99.90;;;;;;5046172;28;20127;-35
2022/09/20 10:49:47;;;;;;;2.40;0.80;;;16.10;99.90;;;;;;5042098;28;20029;-35
2022/09/20 10:52:30;;;;;;;1.05;0.50;;;16.10;99.90;;;;;;5045755;28;20456;-36
2022/09/20 10:55:11;;;;;;;2.63;0.57;;;16.20;99.90;;;;;;5042447;28;20116;-35
2022/09/20 10:58:05;;;;;;;4.78;0.75;;;16.20;99.90;;;;;;5045735;28;20500;-37
2022/09/20 11:00:56;;;;;;;2.13;0.60;;;16.10;99.90;;;;;;5035065;28;20124;-35
2022/09/20 11:03:51;;;;;;;2.20;0.70;;;16.10;99.90;;;;;;5043803;28;20075;-35
2022/09/20 11:06:20;;;;;;;3.70;0.95;;;16.10;99.90;;;;;;5045396;28;20079;-35
2022/09/20 11:08:50;;;;;;;2.83;0.88;;;16.10;99.90;;;;;;5046015;28;20029;-35
2022/09/20 11:11:51;;;;;;;3.35;0.85;;;16.10;99.90;;;;;;5045074;28;20052;-36
2022/09/20 11:14:32;;;;;;;2.65;0.70;;;16.10;99.90;;;;;;5032881;28;20083;-37
2022/09/20 11:17:10;;;;;;;1.73;0.57;;;16.10;99.90;;;;;;5044690;28;20040;-35
2022/09/20 11:19:47;;;;;;;4.80;0.95;;;16.20;99.90;;;;;;5045247;28;20552;-36
2022/09/20 11:22:41;;;;;;;3.28;0.90;;;16.40;99.90;;;;;;5045275;28;20049;-38
2022/09/20 11:25:31;;;;;;;3.08;0.93;;;16.40;99.90;;;;;;5043516;28;20032;-34
2022/09/20 11:28:04;;;;;;;2.13;0.60;;;16.40;99.90;;;;;;5025336;28;20366;-35
2022/09/20 11:30:34;;;;;;;4.45;1.10;;;16.50;99.90;;;;;;5042002;28;20109;-36
2022/09/20 11:33:10;;;;;;;1.88;0.98;;;16.40;99.90;;;;;;5045765;28;20116;-35
2022/09/20 11:35:41;;;;;;;2.58;0.80;;;16.50;99.90;;;;;;5045282;28;20036;-37
2022/09/20 11:38:13;;;;;;;3.53;0.80;;;16.50;99.90;;;;;;5024728;28;20053;-35
2022/09/20 11:40:46;;;;;;;4.53;1.20;;;16.50;99.90;;;;;;5040354;28;20013;-36
2022/09/20 11:43:14;;;;;;;1.98;0.75;;;16.50;99.90;;;;;;5044550;28;20492;-35
2022/09/20 11:45:42;;;;;;;3.20;0.60;;;16.60;99.90;;;;;;5044801;28;20031;-35
2022/09/20 11:48:31;;;;;;;1.58;0.50;;;16.60;99.90;;;;;;5044664;28;20033;-35
2022/09/20 11:51:28;;;;;;;3.75;0.80;;;16.60;99.90;;;;;;5045164;28;20083;-35
2022/09/20 11:54:14;;;;;;;2.53;0.70;;;16.50;99.90;;;;;;5025378;28;20033;-36
2022/09/20 11:56:48;;;;;;;2.35;0.77;;;16.50;99.90;;;;;;5044361;28;20021;-35
2022/09/20 11:59:25;;;;;;;2.05;0.80;;;16.40;99.90;;;;;;5043827;28;20056;-36
2022/09/20 12:01:56;;;;;;;5.78;0.80;;;16.30;99.90;;;;;;5044647;28;20032;-36
2022/09/20 12:04:26;;;;;;;4.65;0.90;;;16.20;99.90;;;;;;5044146;28;20123;-36
2022/09/20 12:07:04;;;;;;;2.90;0.75;;;16.20;99.90;;;;;;5044199;28;20481;-36
2022/09/20 12:09:37;;;;;;;3.53;0.70;;;16.20;99.90;;;;;;5044287;28;20721;-36
2022/09/20 12:12:24;;;;;;;;;;;16.30;99.30;;;;;;5045112;28;20484;-36
2022/09/20 12:14:58;;;;;;;2.65;0.70;;;16.30;98.90;;;;;;5044334;28;19909;-36
2022/09/20 12:17:46;;;;;;;2.35;0.77;;;16.40;98.70;;;;;;5043300;28;20028;-36
2022/09/20 12:20:43;;;;;;;3.35;0.70;;;16.50;98.50;;;;;;5043301;28;20484;-36
2022/09/20 12:23:40;;;;;;;2.63;0.70;;;16.50;98.80;;;;;;5043780;28;20515;-36
2022/09/20 12:26:10;;;;;;;4.57;1.45;;;16.80;98.70;;;;;;5044324;28;20039;-35
2022/09/20 12:28:38;;;;;;;5.40;1.15;;;17.10;97.90;;;;;;5044171;28;20484;-36
2022/09/20 12:31:24;;;;;;;2.78;0.80;;;17.10;97.30;;;;;;5045014;28;20411;-36
2022/09/20 12:33:56;;;;;;;3.90;0.90;;;17.00;97.00;;;;;;5034692;28;20029;-37
2022/09/20 12:36:22;;;;;;;2.73;0.67;;;17.00;97.20;;;;;;5043884;28;20060;-36
2022/09/20 12:38:54;;;;;;;3.13;0.70;;;16.90;97.40;;;;;;5044675;28;20461;-35
2022/09/20 12:41:21;;;;;;;3.85;0.85;;;16.90;97.60;;;;;;5043309;28;20044;-37
2022/09/20 12:43:55;;;;;;;2.70;0.82;;;17.00;97.20;;;;;;5044315;28;20048;-36
2022/09/20 12:46:28;;;;;;;1.80;0.60;;;17.00;97.50;;;;;;5043940;28;20041;-36
2022/09/20 12:52:52;;;;;;;3.15;0.80;;;17.20;97.90;;;;;;5022179;28;20064;-34
2022/09/20 12:55:40;;;;;;;2.63;0.82;;;17.30;97.30;;;;;;5042962;28;20029;-38
2022/09/20 12:58:14;;;;;;;1.92;0.60;;;17.30;96.80;;;;;;5043153;28;20037;-35
2022/09/20 13:00:46;;;;;;;12.75;1.33;;;17.20;96.80;;;;;;5044456;28;20140;-35
2022/09/20 13:03:15;;;;;;;7.00;0.80;;;17.20;96.70;;;;;;5043024;28;20123;-37
2022/09/20 13:05:45;;;;;;;4.43;1.10;;;17.20;97.00;;;;;;5043622;28;20059;-35
2022/09/20 13:08:15;;;;;;;3.72;0.80;;;17.20;96.10;;;;;;5043746;28;20025;-35
2022/09/20 13:10:57;;;;;;;2.97;0.63;;;17.20;96.10;;;;;;5044080;28;20032;-35
2022/09/20 13:13:45;;;;;;;3.30;0.80;;;17.20;95.20;;;;;;5043304;28;20025;-34
2022/09/20 13:16:50;;;;;;;1.88;0.70;;;17.10;95.20;;;;;;5042772;28;20563;-35
2022/09/20 13:19:37;;;;;;;2.20;0.80;;;17.20;95.70;;;;;;5039983;28;20025;-35
2022/09/20 13:22:16;;;;;;;2.17;0.80;;;17.20;95.30;;;;;;5044840;28;20424;-36
2022/09/20 13:24:45;;;;;;;3.10;0.93;;;17.20;95.60;;;;;;5043183;28;20428;-35
2022/09/20 13:27:45;;;;;;;3.03;0.90;;;17.10;95.50;;;;;;5045037;28;20124;-38
2022/09/20 13:30:24;;;;;;;5.82;1.02;;;17.00;96.10;;;;;;5041579;28;20033;-37
2022/09/20 13:32:50;;;;;;;5.40;1.10;;;16.70;96.90;;;;;;5047973;28;20032;-36
2022/09/20 13:35:20;;;;;;;3.05;0.80;;;16.50;97.50;;;;;;5047276;28;20152;-35
2022/09/20 13:38:07;;;;;;;3.25;0.88;;;16.20;98.00;;;;;;5047252;28;20029;-35
2022/09/20 13:40:46;;;;;;;3.72;1.05;;;16.10;98.50;;;;;;5045287;28;20036;-36
2022/09/20 13:43:35;;;;;;;3.58;0.85;;;16.00;98.80;;;;;;5046814;28;20033;-36
2022/09/20 13:46:16;;;;;;;2.72;0.80;;;15.90;99.00;;;;;;5047194;28;20384;-37
2022/09/20 13:48:46;;;;;;;1.97;0.70;;;16.00;99.00;;;;;;5046597;28;20029;-36
2022/09/20 13:51:24;;;;;;;2.85;0.75;;;16.10;99.00;;;;;;5035354;28;20283;-34
2022/09/20 13:53:50;;;;;;;3.78;0.60;;;16.20;99.00;;;;;;5046806;28;20384;-35
2022/09/20 13:56:20;;;;;;;2.65;0.70;;;16.30;99.00;;;;;;5045976;28;20029;-35
2022/09/20 13:58:47;;;;;;;2.90;1.00;;;16.30;98.80;;;;;;5045703;28;20051;-35
2022/09/20 14:01:30;;;;;;;1.90;0.68;;;16.40;98.80;;;;;;5046464;28;20048;-44
2022/09/20 14:04:15;;;;;;;2.60;0.50;;;16.40;98.60;;;;;;5047122;28;20045;-34
2022/09/20 14:06:41;;;;;;;3.20;1.00;;;16.40;98.80;;;;;;5045872;28;20452;-35